sensor_id;sensor_type;location;lat;lon;timestamp;temperature;humidity
21090;DHT22;10703;51.020;6.128;2022-10-26T00:00:51;11.90;99.90
21090;DHT22;10703;51.020;6.128;2022-10-26T00:03:18;11.90;99.90
21090;DHT22;10703;51.020;6.128;2022-10-26T00:05:45;11.90;99.90
21090;DHT22;10703;51.020;6.128;2022-10-26T00:08:11;11.80;99.90
21090;DHT22;10703;51.020;6.128;2022-10-26T00:10:38;11.70;99.90
21090;DHT22;10703;51.020;6.128;2022-10-26T00:13:09;11.70;99.90
21090;DHT22;10703;51.020;6.128;2022-10-26T00:15:39;11.60;99.90
21090;DHT22;10703;51.020;6.128;2022-10-26T00:18:07;11.60;99.90
21090;DHT22;10703;51.020;6.128;2022-10-26T00:20:34;11.50;99.90
21090;DHT22;10703;51.020;6.128;2022-10-26T00:23:00;11.50;99.90
21090;DHT22;10703;51.020;6.128;2022-10-26T00:25:27;11.40;99.90
21090;DHT22;10703;51.020;6.128;2022-10-26T00:27:53;11.40;99.90
21090;DHT22;10703;51.020;6.128;2022-10-26T00:30:20;11.40;99.90
21090;DHT22;10703;51.020;6.128;2022-10-26T00:32:46;11.30;99.90
21090;DHT22;10703;51.020;6.128;2022-10-26T00:35:13;11.40;99.90
21090;DHT22;10703;51.020;6.128;2022-10-26T00:37:55;11.50;99.90
21090;DHT22;10703;51.020;6.128;2022-10-26T00:40:28;11.40;99.90
21090;DHT22;10703;51.020;6.128;2022-10-26T00:42:55;11.50;99.90
21090;DHT22;10703;51.020;6.128;2022-10-26T00:45:27;11.50;99.90
21090;DHT22;10703;51.020;6.128;2022-10-26T00:48:00;11.60;99.90
21090;DHT22;10703;51.020;6.128;2022-10-26T00:50:32;11.60;99.90
21090;DHT22;10703;51.020;6.128;2022-10-26T00:53:02;11.60;99.90
21090;DHT22;10703;51.020;6.128;2022-10-26T00:55:33;11.60;99.90
21090;DHT22;10703;51.020;6.128;2022-10-26T00:58:05;11.70;99.90
21090;DHT22;10703;51.020;6.128;2022-10-26T01:00:32;11.70;99.90
21090;DHT22;10703;51.020;6.128;2022-10-26T01:03:03;11.70;99.90
21090;DHT22;10703;51.020;6.128;2022-10-26T01:05:31;11.80;99.90
21090;DHT22;10703;51.020;6.128;2022-10-26T01:07:58;11.70;99.90
21090;DHT22;10703;51.020;6.128;2022-10-26T01:10:26;11.80;99.90
21090;DHT22;10703;51.020;6.128;2022-10-26T01:12:55;11.70;99.90
21090;DHT22;10703;51.020;6.128;2022-10-26T01:18:38;11.80;99.90
21090;DHT22;10703;51.020;6.128;2022-10-26T01:24:18;11.70;99.90
21090;DHT22;10703;51.020;6.128;2022-10-26T01:27:17;11.70;99.90
21090;DHT22;10703;51.020;6.128;2022-10-26T01:30:15;11.80;99.90
21090;DHT22;10703;51.020;6.128;2022-10-26T01:32:54;11.90;99.90
21090;DHT22;10703;51.020;6.128;2022-10-26T01:35:31;11.90;99.90
21090;DHT22;10703;51.020;6.128;2022-10-26T01:38:32;11.90;99.90
21090;DHT22;10703;51.020;6.128;2022-10-26T01:43:34;11.90;99.90
21090;DHT22;10703;51.020;6.128;2022-10-26T01:46:03;11.90;99.90
21090;DHT22;10703;51.020;6.128;2022-10-26T01:48:32;12.00;99.90
21090;DHT22;10703;51.020;6.128;2022-10-26T01:51:00;11.90;99.90
21090;DHT22;10703;51.020;6.128;2022-10-26T01:53:27;11.90;99.90
21090;DHT22;10703;51.020;6.128;2022-10-26T01:55:55;12.00;99.90
21090;DHT22;10703;51.020;6.128;2022-10-26T02:01:06;11.90;99.90
21090;DHT22;10703;51.020;6.128;2022-10-26T02:04:02;12.00;99.90
21090;DHT22;10703;51.020;6.128;2022-10-26T02:06:39;12.00;99.90
21090;DHT22;10703;51.020;6.128;2022-10-26T02:09:19;11.90;99.90
21090;DHT22;10703;51.020;6.128;2022-10-26T02:11:51;11.90;99.90
21090;DHT22;10703;51.020;6.128;2022-10-26T02:14:24;11.90;99.90
21090;DHT22;10703;51.020;6.128;2022-10-26T02:16:57;11.90;99.90
21090;DHT22;10703;51.020;6.128;2022-10-26T02:19:37;12.10;99.90
21090;DHT22;10703;51.020;6.128;2022-10-26T02:24:40;12.20;99.90
21090;DHT22;10703;51.020;6.128;2022-10-26T02:27:10;12.30;99.90
21090;DHT22;10703;51.020;6.128;2022-10-26T02:29:39;12.40;99.90
21090;DHT22;10703;51.020;6.128;2022-10-26T02:32:07;12.40;99.90
21090;DHT22;10703;51.020;6.128;2022-10-26T02:34:35;12.40;99.90
21090;DHT22;10703;51.020;6.128;2022-10-26T02:37:03;12.50;99.90
21090;DHT22;10703;51.020;6.128;2022-10-26T02:39:33;12.40;99.90
21090;DHT22;10703;51.020;6.128;2022-10-26T02:42:02;12.30;99.90
21090;DHT22;10703;51.020;6.128;2022-10-26T02:44:35;12.30;99.90
21090;DHT22;10703;51.020;6.128;2022-10-26T02:47:02;12.40;99.90
21090;DHT22;10703;51.020;6.128;2022-10-26T02:49:29;12.70;99.90
21090;DHT22;10703;51.020;6.128;2022-10-26T02:52:10;12.80;99.90
21090;DHT22;10703;51.020;6.128;2022-10-26T02:55:33;12.80;99.90
21090;DHT22;10703;51.020;6.128;2022-10-26T02:57:42;12.90;99.90
21090;DHT22;10703;51.020;6.128;2022-10-26T03:00:15;12.80;99.90
21090;DHT22;10703;51.020;6.128;2022-10-26T03:02:44;12.90;99.90
21090;DHT22;10703;51.020;6.128;2022-10-26T03:05:30;12.80;99.90
21090;DHT22;10703;51.020;6.128;2022-10-26T03:07:59;12.80;99.90
21090;DHT22;10703;51.020;6.128;2022-10-26T03:10:26;13.00;99.90
21090;DHT22;10703;51.020;6.128;2022-10-26T03:12:53;12.90;99.90
21090;DHT22;10703;51.020;6.128;2022-10-26T03:15:20;12.90;99.90
21090;DHT22;10703;51.020;6.128;2022-10-26T03:17:47;12.90;99.90
21090;DHT22;10703;51.020;6.128;2022-10-26T03:20:14;13.00;99.90
21090;DHT22;10703;51.020;6.128;2022-10-26T03:22:40;13.00;99.90
21090;DHT22;10703;51.020;6.128;2022-10-26T03:25:07;13.10;99.90
21090;DHT22;10703;51.020;6.128;2022-10-26T03:27:39;13.10;99.90
21090;DHT22;10703;51.020;6.128;2022-10-26T03:30:06;13.10;99.90
21090;DHT22;10703;51.020;6.128;2022-10-26T03:32:34;13.10;99.90
21090;DHT22;10703;51.020;6.128;2022-10-26T03:35:01;13.20;99.90
21090;DHT22;10703;51.020;6.128;2022-10-26T03:37:27;13.10;99.90
21090;DHT22;10703;51.020;6.128;2022-10-26T03:39:54;13.10;99.90
21090;DHT22;10703;51.020;6.128;2022-10-26T03:42:20;13.20;99.90
21090;DHT22;10703;51.020;6.128;2022-10-26T03:44:47;13.30;99.90
21090;DHT22;10703;51.020;6.128;2022-10-26T03:47:13;13.40;99.90
21090;DHT22;10703;51.020;6.128;2022-10-26T03:49:40;13.50;99.90
21090;DHT22;10703;51.020;6.128;2022-10-26T03:52:07;13.50;99.90
21090;DHT22;10703;51.020;6.128;2022-10-26T03:54:33;13.50;99.90
21090;DHT22;10703;51.020;6.128;2022-10-26T03:57:00;13.60;99.90
21090;DHT22;10703;51.020;6.128;2022-10-26T03:59:26;13.50;99.90
21090;DHT22;10703;51.020;6.128;2022-10-26T04:01:53;13.50;99.90
21090;DHT22;10703;51.020;6.128;2022-10-26T04:04:23;13.60;99.90
21090;DHT22;10703;51.020;6.128;2022-10-26T04:06:51;13.60;99.90
21090;DHT22;10703;51.020;6.128;2022-10-26T04:09:17;13.70;99.90
21090;DHT22;10703;51.020;6.128;2022-10-26T04:11:44;13.70;99.90
21090;DHT22;10703;51.020;6.128;2022-10-26T04:14:11;13.80;99.90
21090;DHT22;10703;51.020;6.128;2022-10-26T04:16:37;13.80;99.90
21090;DHT22;10703;51.020;6.128;2022-10-26T04:19:04;13.90;99.90
21090;DHT22;10703;51.020;6.128;2022-10-26T04:21:30;13.80;99.90
21090;DHT22;10703;51.020;6.128;2022-10-26T04:23:58;13.80;99.90
21090;DHT22;10703;51.020;6.128;2022-10-26T04:26:25;13.80;99.90
21090;DHT22;10703;51.020;6.128;2022-10-26T04:28:51;13.80;99.90
21090;DHT22;10703;51.020;6.128;2022-10-26T04:31:18;13.80;99.90
21090;DHT22;10703;51.020;6.128;2022-10-26T04:33:44;13.80;99.90
21090;DHT22;10703;51.020;6.128;2022-10-26T04:36:11;13.70;99.90
21090;DHT22;10703;51.020;6.128;2022-10-26T04:38:37;13.70;99.90
21090;DHT22;10703;51.020;6.128;2022-10-26T04:41:04;13.70;99.90
21090;DHT22;10703;51.020;6.128;2022-10-26T04:43:31;13.70;99.90
21090;DHT22;10703;51.020;6.128;2022-10-26T04:45:57;13.60;99.90
21090;DHT22;10703;51.020;6.128;2022-10-26T04:48:24;13.80;99.90
21090;DHT22;10703;51.020;6.128;2022-10-26T04:50:51;13.90;99.90
21090;DHT22;10703;51.020;6.128;2022-10-26T04:53:18;13.90;99.90
21090;DHT22;10703;51.020;6.128;2022-10-26T04:55:45;13.90;99.90
21090;DHT22;10703;51.020;6.128;2022-10-26T04:58:11;13.90;99.90
21090;DHT22;10703;51.020;6.128;2022-10-26T05:00:38;14.00;99.90
21090;DHT22;10703;51.020;6.128;2022-10-26T05:03:06;14.00;99.90
21090;DHT22;10703;51.020;6.128;2022-10-26T05:05:34;14.00;99.90
21090;DHT22;10703;51.020;6.128;2022-10-26T05:08:01;14.00;99.90
21090;DHT22;10703;51.020;6.128;2022-10-26T05:10:28;14.10;99.90
21090;DHT22;10703;51.020;6.128;2022-10-26T05:12:56;14.10;99.90
21090;DHT22;10703;51.020;6.128;2022-10-26T05:15:23;14.10;99.90
21090;DHT22;10703;51.020;6.128;2022-10-26T05:17:57;14.10;99.90
21090;DHT22;10703;51.020;6.128;2022-10-26T05:20:26;14.20;99.90
21090;DHT22;10703;51.020;6.128;2022-10-26T05:22:57;14.30;99.90
21090;DHT22;10703;51.020;6.128;2022-10-26T05:25:24;14.20;99.90
21090;DHT22;10703;51.020;6.128;2022-10-26T05:27:51;14.30;99.90
21090;DHT22;10703;51.020;6.128;2022-10-26T05:30:18;14.20;99.90
21090;DHT22;10703;51.020;6.128;2022-10-26T05:32:44;14.20;99.90
21090;DHT22;10703;51.020;6.128;2022-10-26T05:35:18;14.10;99.90
21090;DHT22;10703;51.020;6.128;2022-10-26T05:37:45;14.10;99.90
21090;DHT22;10703;51.020;6.128;2022-10-26T05:40:11;14.20;99.90
21090;DHT22;10703;51.020;6.128;2022-10-26T05:42:38;14.20;99.90
21090;DHT22;10703;51.020;6.128;2022-10-26T05:45:05;14.40;99.90
21090;DHT22;10703;51.020;6.128;2022-10-26T05:47:32;14.60;99.90
21090;DHT22;10703;51.020;6.128;2022-10-26T05:49:58;14.70;99.90
21090;DHT22;10703;51.020;6.128;2022-10-26T05:52:25;14.70;99.90
21090;DHT22;10703;51.020;6.128;2022-10-26T05:54:51;14.70;99.90
21090;DHT22;10703;51.020;6.128;2022-10-26T05:57:18;14.70;99.90
21090;DHT22;10703;51.020;6.128;2022-10-26T05:59:45;14.70;99.90
21090;DHT22;10703;51.020;6.128;2022-10-26T06:02:23;14.60;99.90
21090;DHT22;10703;51.020;6.128;2022-10-26T06:04:53;14.60;99.90
21090;DHT22;10703;51.020;6.128;2022-10-26T06:07:22;14.60;99.90
21090;DHT22;10703;51.020;6.128;2022-10-26T06:09:49;14.60;99.90
21090;DHT22;10703;51.020;6.128;2022-10-26T06:12:16;14.60;99.90
21090;DHT22;10703;51.020;6.128;2022-10-26T06:14:45;14.60;99.90
21090;DHT22;10703;51.020;6.128;2022-10-26T06:19:52;14.70;99.90
21090;DHT22;10703;51.020;6.128;2022-10-26T06:31:16;15.30;99.90
21090;DHT22;10703;51.020;6.128;2022-10-26T06:33:43;15.40;99.90
21090;DHT22;10703;51.020;6.128;2022-10-26T06:36:23;15.40;99.90
21090;DHT22;10703;51.020;6.128;2022-10-26T06:38:57;15.40;99.90
21090;DHT22;10703;51.020;6.128;2022-10-26T06:41:25;15.50;99.90
21090;DHT22;10703;51.020;6.128;2022-10-26T06:43:52;15.50;99.90
21090;DHT22;10703;51.020;6.128;2022-10-26T06:46:38;15.50;99.90
21090;DHT22;10703;51.020;6.128;2022-10-26T06:54:52;15.60;99.90
21090;DHT22;10703;51.020;6.128;2022-10-26T06:57:22;15.60;99.90
21090;DHT22;10703;51.020;6.128;2022-10-26T06:59:56;15.60;99.90
21090;DHT22;10703;51.020;6.128;2022-10-26T07:02:24;15.40;99.90
21090;DHT22;10703;51.020;6.128;2022-10-26T07:04:51;15.20;99.90
21090;DHT22;10703;51.020;6.128;2022-10-26T07:07:20;15.30;99.90
21090;DHT22;10703;51.020;6.128;2022-10-26T07:09:47;15.40;99.90
21090;DHT22;10703;51.020;6.128;2022-10-26T07:12:14;15.60;99.90
21090;DHT22;10703;51.020;6.128;2022-10-26T07:14:40;15.70;99.90
21090;DHT22;10703;51.020;6.128;2022-10-26T07:17:08;15.70;99.90
21090;DHT22;10703;51.020;6.128;2022-10-26T07:19:34;15.80;99.90
21090;DHT22;10703;51.020;6.128;2022-10-26T07:22:01;15.80;99.90
21090;DHT22;10703;51.020;6.128;2022-10-26T07:24:29;16.00;99.90
21090;DHT22;10703;51.020;6.128;2022-10-26T07:26:56;16.00;99.90
21090;DHT22;10703;51.020;6.128;2022-10-26T07:29:24;16.00;99.90
21090;DHT22;10703;51.020;6.128;2022-10-26T07:31:52;16.10;99.90
21090;DHT22;10703;51.020;6.128;2022-10-26T07:34:19;16.10;99.90
21090;DHT22;10703;51.020;6.128;2022-10-26T07:36:46;16.50;99.90
21090;DHT22;10703;51.020;6.128;2022-10-26T07:39:13;16.90;99.90
21090;DHT22;10703;51.020;6.128;2022-10-26T07:41:39;17.10;99.90
21090;DHT22;10703;51.020;6.128;2022-10-26T07:44:06;17.50;99.90
21090;DHT22;10703;51.020;6.128;2022-10-26T07:46:32;17.40;99.90
21090;DHT22;10703;51.020;6.128;2022-10-26T07:48:59;17.20;99.90
21090;DHT22;10703;51.020;6.128;2022-10-26T07:51:26;17.00;99.90
21090;DHT22;10703;51.020;6.128;2022-10-26T07:53:52;17.20;99.90
21090;DHT22;10703;51.020;6.128;2022-10-26T07:56:19;17.70;99.90
21090;DHT22;10703;51.020;6.128;2022-10-26T07:58:46;17.90;99.90
21090;DHT22;10703;51.020;6.128;2022-10-26T08:01:14;18.00;99.90
21090;DHT22;10703;51.020;6.128;2022-10-26T08:03:41;18.40;99.90
21090;DHT22;10703;51.020;6.128;2022-10-26T08:06:08;18.40;99.90
21090;DHT22;10703;51.020;6.128;2022-10-26T08:08:36;18.80;99.90
21090;DHT22;10703;51.020;6.128;2022-10-26T08:11:04;19.70;99.90
21090;DHT22;10703;51.020;6.128;2022-10-26T08:13:31;20.00;99.90
21090;DHT22;10703;51.020;6.128;2022-10-26T08:16:03;19.80;99.90
21090;DHT22;10703;51.020;6.128;2022-10-26T08:18:30;20.00;99.90
21090;DHT22;10703;51.020;6.128;2022-10-26T08:21:01;19.90;99.90
21090;DHT22;10703;51.020;6.128;2022-10-26T08:23:38;19.80;99.90
21090;DHT22;10703;51.020;6.128;2022-10-26T08:26:05;20.30;99.90
21090;DHT22;10703;51.020;6.128;2022-10-26T08:28:32;20.60;99.90
21090;DHT22;10703;51.020;6.128;2022-10-26T08:30:59;20.90;99.90
21090;DHT22;10703;51.020;6.128;2022-10-26T08:33:25;20.90;99.90
21090;DHT22;10703;51.020;6.128;2022-10-26T08:35:56;21.10;99.90
21090;DHT22;10703;51.020;6.128;2022-10-26T08:38:23;21.20;99.90
21090;DHT22;10703;51.020;6.128;2022-10-26T08:40:50;21.30;99.90
21090;DHT22;10703;51.020;6.128;2022-10-26T08:43:25;21.20;99.90
21090;DHT22;10703;51.020;6.128;2022-10-26T08:49:26;20.60;99.90
21090;DHT22;10703;51.020;6.128;2022-10-26T08:51:57;21.10;99.90
21090;DHT22;10703;51.020;6.128;2022-10-26T08:54:45;21.00;99.90
21090;DHT22;10703;51.020;6.128;2022-10-26T08:57:22;20.60;99.90
21090;DHT22;10703;51.020;6.128;2022-10-26T08:59:59;20.60;99.90
21090;DHT22;10703;51.020;6.128;2022-10-26T09:02:27;20.80;99.90
21090;DHT22;10703;51.020;6.128;2022-10-26T09:04:55;21.00;99.90
21090;DHT22;10703;51.020;6.128;2022-10-26T09:10:39;20.80;99.90
21090;DHT22;10703;51.020;6.128;2022-10-26T09:19:33;20.60;99.90
21090;DHT22;10703;51.020;6.128;2022-10-26T09:22:22;21.00;99.90
21090;DHT22;10703;51.020;6.128;2022-10-26T09:24:54;20.80;99.90
21090;DHT22;10703;51.020;6.128;2022-10-26T09:27:36;20.90;99.90
21090;DHT22;10703;51.020;6.128;2022-10-26T09:30:13;20.80;99.90
21090;DHT22;10703;51.020;6.128;2022-10-26T09:32:47;20.90;99.90
21090;DHT22;10703;51.020;6.128;2022-10-26T09:35:21;21.20;99.90
21090;DHT22;10703;51.020;6.128;2022-10-26T09:37:59;21.10;99.90
21090;DHT22;10703;51.020;6.128;2022-10-26T09:40:35;21.10;99.90
21090;DHT22;10703;51.020;6.128;2022-10-26T09:43:09;21.20;99.90
21090;DHT22;10703;51.020;6.128;2022-10-26T09:45:42;21.40;99.90
21090;DHT22;10703;51.020;6.128;2022-10-26T09:48:18;21.20;99.90
21090;DHT22;10703;51.020;6.128;2022-10-26T09:50:48;21.10;99.90
21090;DHT22;10703;51.020;6.128;2022-10-26T09:53:15;21.10;99.90
21090;DHT22;10703;51.020;6.128;2022-10-26T09:55:45;21.30;99.90
21090;DHT22;10703;51.020;6.128;2022-10-26T09:58:16;21.60;99.90
21090;DHT22;10703;51.020;6.128;2022-10-26T10:00:44;21.60;99.90
21090;DHT22;10703;51.020;6.128;2022-10-26T10:03:20;21.50;99.90
21090;DHT22;10703;51.020;6.128;2022-10-26T10:05:47;21.30;99.90
21090;DHT22;10703;51.020;6.128;2022-10-26T10:08:25;21.40;99.90
21090;DHT22;10703;51.020;6.128;2022-10-26T10:13:31;21.40;99.90
21090;DHT22;10703;51.020;6.128;2022-10-26T10:18:31;21.40;99.90
21090;DHT22;10703;51.020;6.128;2022-10-26T10:20:58;21.70;99.90
21090;DHT22;10703;51.020;6.128;2022-10-26T10:23:47;21.60;99.90
21090;DHT22;10703;51.020;6.128;2022-10-26T10:26:13;21.30;99.90
21090;DHT22;10703;51.020;6.128;2022-10-26T10:28:40;21.40;99.90
21090;DHT22;10703;51.020;6.128;2022-10-26T10:31:21;21.70;99.90
21090;DHT22;10703;51.020;6.128;2022-10-26T10:33:48;22.00;99.90
21090;DHT22;10703;51.020;6.128;2022-10-26T10:36:18;21.70;99.90
21090;DHT22;10703;51.020;6.128;2022-10-26T10:38:47;22.10;99.90
21090;DHT22;10703;51.020;6.128;2022-10-26T10:43:48;22.10;99.90
21090;DHT22;10703;51.020;6.128;2022-10-26T10:46:20;22.20;99.90
21090;DHT22;10703;51.020;6.128;2022-10-26T10:49:00;22.40;99.90
21090;DHT22;10703;51.020;6.128;2022-10-26T10:51:30;22.40;99.90
21090;DHT22;10703;51.020;6.128;2022-10-26T10:54:00;21.90;99.90
21090;DHT22;10703;51.020;6.128;2022-10-26T10:56:50;22.30;99.90
21090;DHT22;10703;51.020;6.128;2022-10-26T10:59:29;22.60;99.90
21090;DHT22;10703;51.020;6.128;2022-10-26T11:07:14;23.20;99.90
21090;DHT22;10703;51.020;6.128;2022-10-26T11:09:44;22.80;99.90
21090;DHT22;10703;51.020;6.128;2022-10-26T11:12:18;22.20;99.90
21090;DHT22;10703;51.020;6.128;2022-10-26T11:14:51;22.60;99.90
21090;DHT22;10703;51.020;6.128;2022-10-26T11:17:21;22.60;99.90
21090;DHT22;10703;51.020;6.128;2022-10-26T11:19:54;22.80;99.90
21090;DHT22;10703;51.020;6.128;2022-10-26T11:22:32;23.40;99.90
21090;DHT22;10703;51.020;6.128;2022-10-26T11:25:33;23.00;99.90
21090;DHT22;10703;51.020;6.128;2022-10-26T11:28:05;23.50;99.90
21090;DHT22;10703;51.020;6.128;2022-10-26T11:30:41;23.30;99.90
21090;DHT22;10703;51.020;6.128;2022-10-26T11:33:27;23.30;99.90
21090;DHT22;10703;51.020;6.128;2022-10-26T11:36:03;23.30;99.90
21090;DHT22;10703;51.020;6.128;2022-10-26T11:41:35;23.40;99.90
21090;DHT22;10703;51.020;6.128;2022-10-26T11:47:34;22.70;99.90
21090;DHT22;10703;51.020;6.128;2022-10-26T11:50:24;22.60;99.90
21090;DHT22;10703;51.020;6.128;2022-10-26T11:52:58;22.70;99.90
21090;DHT22;10703;51.020;6.128;2022-10-26T11:55:27;23.20;99.90
21090;DHT22;10703;51.020;6.128;2022-10-26T11:57:54;23.40;99.90
21090;DHT22;10703;51.020;6.128;2022-10-26T12:00:23;23.20;99.90
21090;DHT22;10703;51.020;6.128;2022-10-26T12:03:05;23.60;99.90
21090;DHT22;10703;51.020;6.128;2022-10-26T12:05:42;23.60;99.90
21090;DHT22;10703;51.020;6.128;2022-10-26T12:08:26;24.00;99.90
21090;DHT22;10703;51.020;6.128;2022-10-26T12:13:56;23.50;99.90
21090;DHT22;10703;51.020;6.128;2022-10-26T12:19:21;23.60;99.90
21090;DHT22;10703;51.020;6.128;2022-10-26T12:21:52;23.40;99.90
21090;DHT22;10703;51.020;6.128;2022-10-26T12:24:26;22.90;99.90
21090;DHT22;10703;51.020;6.128;2022-10-26T12:26:58;22.90;99.90
21090;DHT22;10703;51.020;6.128;2022-10-26T12:29:28;23.10;99.90
21090;DHT22;10703;51.020;6.128;2022-10-26T12:31:55;23.00;99.90
21090;DHT22;10703;51.020;6.128;2022-10-26T12:52:47;23.30;99.90
21090;DHT22;10703;51.020;6.128;2022-10-26T12:58:34;23.50;99.90
21090;DHT22;10703;51.020;6.128;2022-10-26T13:01:09;24.00;99.90
21090;DHT22;10703;51.020;6.128;2022-10-26T13:06:28;24.90;99.90
21090;DHT22;10703;51.020;6.128;2022-10-26T13:09:08;25.00;99.90
21090;DHT22;10703;51.020;6.128;2022-10-26T13:11:51;24.90;99.90
21090;DHT22;10703;51.020;6.128;2022-10-26T13:14:26;24.80;99.90
21090;DHT22;10703;51.020;6.128;2022-10-26T13:16:54;24.80;99.90
21090;DHT22;10703;51.020;6.128;2022-10-26T13:19:32;24.20;99.90
21090;DHT22;10703;51.020;6.128;2022-10-26T13:22:01;23.60;99.90
21090;DHT22;10703;51.020;6.128;2022-10-26T13:24:30;23.50;99.90
21090;DHT22;10703;51.020;6.128;2022-10-26T13:29:31;23.50;99.90
21090;DHT22;10703;51.020;6.128;2022-10-26T13:31:59;23.80;99.90
21090;DHT22;10703;51.020;6.128;2022-10-26T13:34:28;24.10;99.90
21090;DHT22;10703;51.020;6.128;2022-10-26T13:37:23;24.10;99.90
21090;DHT22;10703;51.020;6.128;2022-10-26T13:39:53;24.30;99.90
21090;DHT22;10703;51.020;6.128;2022-10-26T13:42:27;24.50;99.90
21090;DHT22;10703;51.020;6.128;2022-10-26T13:45:10;24.80;99.90
21090;DHT22;10703;51.020;6.128;2022-10-26T13:50:22;24.40;99.90
21090;DHT22;10703;51.020;6.128;2022-10-26T13:52:57;23.80;99.90
21090;DHT22;10703;51.020;6.128;2022-10-26T13:55:35;23.40;99.90
21090;DHT22;10703;51.020;6.128;2022-10-26T14:00:30;23.30;99.90
21090;DHT22;10703;51.020;6.128;2022-10-26T14:02:57;23.00;99.90
21090;DHT22;10703;51.020;6.128;2022-10-26T14:05:24;23.00;99.90
21090;DHT22;10703;51.020;6.128;2022-10-26T14:07:53;23.40;99.90
21090;DHT22;10703;51.020;6.128;2022-10-26T14:10:38;23.20;99.90
21090;DHT22;10703;51.020;6.128;2022-10-26T14:13:07;23.30;99.90
21090;DHT22;10703;51.020;6.128;2022-10-26T14:15:34;23.50;99.90
21090;DHT22;10703;51.020;6.128;2022-10-26T14:18:02;23.50;99.90
21090;DHT22;10703;51.020;6.128;2022-10-26T14:20:30;23.40;99.90
21090;DHT22;10703;51.020;6.128;2022-10-26T14:22:57;23.30;99.90
21090;DHT22;10703;51.020;6.128;2022-10-26T14:25:26;23.00;99.90
21090;DHT22;10703;51.020;6.128;2022-10-26T14:28:38;23.10;99.90
21090;DHT22;10703;51.020;6.128;2022-10-26T14:33:50;23.00;99.90
21090;DHT22;10703;51.020;6.128;2022-10-26T14:36:18;22.90;99.90
21090;DHT22;10703;51.020;6.128;2022-10-26T14:38:50;22.60;99.90
21090;DHT22;10703;51.020;6.128;2022-10-26T14:41:19;22.00;99.90
21090;DHT22;10703;51.020;6.128;2022-10-26T14:43:46;22.00;99.90
21090;DHT22;10703;51.020;6.128;2022-10-26T14:46:15;22.10;99.90
21090;DHT22;10703;51.020;6.128;2022-10-26T14:48:56;22.10;99.90
21090;DHT22;10703;51.020;6.128;2022-10-26T14:51:28;21.80;99.90
21090;DHT22;10703;51.020;6.128;2022-10-26T14:53:57;21.90;99.90
21090;DHT22;10703;51.020;6.128;2022-10-26T14:59:19;21.80;99.90
21090;DHT22;10703;51.020;6.128;2022-10-26T15:01:57;21.80;99.90
21090;DHT22;10703;51.020;6.128;2022-10-26T15:07:01;21.90;99.90
21090;DHT22;10703;51.020;6.128;2022-10-26T15:09:46;21.70;99.90
21090;DHT22;10703;51.020;6.128;2022-10-26T15:12:27;21.70;99.90
21090;DHT22;10703;51.020;6.128;2022-10-26T15:14:55;21.70;99.90
21090;DHT22;10703;51.020;6.128;2022-10-26T15:17:36;21.50;99.90
21090;DHT22;10703;51.020;6.128;2022-10-26T15:20:05;21.30;99.90
21090;DHT22;10703;51.020;6.128;2022-10-26T15:22:33;21.30;99.90
21090;DHT22;10703;51.020;6.128;2022-10-26T15:25:04;21.30;99.90
21090;DHT22;10703;51.020;6.128;2022-10-26T15:27:31;21.30;99.90
21090;DHT22;10703;51.020;6.128;2022-10-26T15:32:46;21.00;99.90
21090;DHT22;10703;51.020;6.128;2022-10-26T15:35:21;20.90;99.90
21090;DHT22;10703;51.020;6.128;2022-10-26T15:37:50;20.80;99.90
21090;DHT22;10703;51.020;6.128;2022-10-26T15:40:17;20.70;99.90
21090;DHT22;10703;51.020;6.128;2022-10-26T15:42:48;20.60;99.90
21090;DHT22;10703;51.020;6.128;2022-10-26T15:45:17;20.60;99.90
21090;DHT22;10703;51.020;6.128;2022-10-26T15:47:44;20.50;99.90
21090;DHT22;10703;51.020;6.128;2022-10-26T15:50:17;20.30;99.90
21090;DHT22;10703;51.020;6.128;2022-10-26T15:52:44;20.20;99.90
21090;DHT22;10703;51.020;6.128;2022-10-26T15:55:15;20.10;99.90
21090;DHT22;10703;51.020;6.128;2022-10-26T15:57:42;19.80;99.90
21090;DHT22;10703;51.020;6.128;2022-10-26T16:00:14;19.60;99.90
21090;DHT22;10703;51.020;6.128;2022-10-26T16:02:42;19.50;99.90
21090;DHT22;10703;51.020;6.128;2022-10-26T16:05:13;19.40;99.90
21090;DHT22;10703;51.020;6.128;2022-10-26T16:07:43;19.20;99.90
21090;DHT22;10703;51.020;6.128;2022-10-26T16:10:22;19.20;99.90
21090;DHT22;10703;51.020;6.128;2022-10-26T16:12:49;19.10;99.90
21090;DHT22;10703;51.020;6.128;2022-10-26T16:15:22;19.00;99.90
21090;DHT22;10703;51.020;6.128;2022-10-26T16:17:50;18.80;99.90
21090;DHT22;10703;51.020;6.128;2022-10-26T16:20:20;18.70;99.90
21090;DHT22;10703;51.020;6.128;2022-10-26T16:22:50;18.60;99.90
21090;DHT22;10703;51.020;6.128;2022-10-26T16:25:21;18.30;99.90
21090;DHT22;10703;51.020;6.128;2022-10-26T16:27:47;18.20;99.90
21090;DHT22;10703;51.020;6.128;2022-10-26T16:30:17;18.10;99.90
21090;DHT22;10703;51.020;6.128;2022-10-26T16:32:44;18.10;99.90
21090;DHT22;10703;51.020;6.128;2022-10-26T16:35:12;18.00;99.90
21090;DHT22;10703;51.020;6.128;2022-10-26T16:37:39;18.00;99.90
21090;DHT22;10703;51.020;6.128;2022-10-26T16:40:07;18.00;99.90
21090;DHT22;10703;51.020;6.128;2022-10-26T16:42:34;18.10;99.90
21090;DHT22;10703;51.020;6.128;2022-10-26T16:45:01;18.10;99.90
21090;DHT22;10703;51.020;6.128;2022-10-26T16:47:31;18.00;99.90
21090;DHT22;10703;51.020;6.128;2022-10-26T16:50:02;18.00;99.90
21090;DHT22;10703;51.020;6.128;2022-10-26T16:52:28;18.00;99.90
21090;DHT22;10703;51.020;6.128;2022-10-26T16:54:55;18.00;99.90
21090;DHT22;10703;51.020;6.128;2022-10-26T16:57:22;18.10;99.90
21090;DHT22;10703;51.020;6.128;2022-10-26T16:59:48;18.00;99.90
21090;DHT22;10703;51.020;6.128;2022-10-26T17:02:15;18.10;99.90
21090;DHT22;10703;51.020;6.128;2022-10-26T17:04:42;17.90;99.90
21090;DHT22;10703;51.020;6.128;2022-10-26T17:07:09;18.10;99.90
21090;DHT22;10703;51.020;6.128;2022-10-26T17:09:36;18.10;99.90
21090;DHT22;10703;51.020;6.128;2022-10-26T17:12:04;18.10;99.90
21090;DHT22;10703;51.020;6.128;2022-10-26T17:14:30;17.90;99.90
21090;DHT22;10703;51.020;6.128;2022-10-26T17:16:58;18.00;99.90
21090;DHT22;10703;51.020;6.128;2022-10-26T17:19:25;17.90;99.90
21090;DHT22;10703;51.020;6.128;2022-10-26T17:21:51;17.80;99.90
21090;DHT22;10703;51.020;6.128;2022-10-26T17:24:18;17.70;99.90
21090;DHT22;10703;51.020;6.128;2022-10-26T17:26:45;17.70;99.90
21090;DHT22;10703;51.020;6.128;2022-10-26T17:29:12;17.60;99.90
21090;DHT22;10703;51.020;6.128;2022-10-26T17:31:39;17.60;99.90
21090;DHT22;10703;51.020;6.128;2022-10-26T17:34:05;17.60;99.90
21090;DHT22;10703;51.020;6.128;2022-10-26T17:36:32;17.60;99.90
21090;DHT22;10703;51.020;6.128;2022-10-26T17:38:58;17.60;99.90
21090;DHT22;10703;51.020;6.128;2022-10-26T17:41:26;17.50;99.90
21090;DHT22;10703;51.020;6.128;2022-10-26T17:43:54;17.40;99.90